Latest Weather Observations for Townsville

IDQ60801

Issued at 6:32 pm EST Sunday 24 July 2016 (issued every 30 minutes, with the page automatically refreshed every 10 minutes)

About weather observations | Map of weather stations | Latest weather observations for QLD | Other Formats
Station Details ID: 032040 Name: TOWNSVILLE AERO Lat: -19.25 Lon: 146.77 Height: 4.34 m
Data from the previous 72 hours. | See also: Recent months at Townsville
Date/Time
EST
Temp
°C
App
Temp
°C
Dew
Point
°C
Rel
Hum
%
Delta-T
°C
Wind Press
QNH
hPa
Press
MSL
hPa
Rain since
9am
mm
Dir  Spd
km/h
Gust
km/h
Spd
kts
Gust
kts
24/06:30pm 22.5 24.9 19.7 84 1.8 NNW 6 9 3 5 1014.5 1014.5 0.0
24/06:00pm 23.6 25.6 19.2 76 2.8 N 7 9 4 5 1014.4 1014.4 0.0
24/05:30pm 24.6 25.8 19.1 71 3.5 N 11 13 6 7 1014.0 1014.0 0.0
24/05:00pm 25.4 26.7 18.5 65 4.4 N 9 13 5 7 1013.8 1013.8 0.0
24/04:30pm 26.5 27.6 18.8 62 4.9 NE 11 15 6 8 1013.5 1013.5 0.0
24/04:00pm 26.7 27.6 18.4 60 5.3 NE 11 15 6 8 1013.3 1013.3 0.0
24/03:30pm 26.7 27.6 18.4 60 5.3 N 11 17 6 9 1013.3 1013.3 0.0
24/03:00pm 26.8 27.1 17.8 57 5.7 NE 13 17 7 9 1013.5 1013.5 0.0
24/02:30pm 27.2 27.4 18.6 59 5.5 NE 15 19 8 10 1013.7 1013.7 0.0
24/02:00pm 27.1 26.6 17.9 57 5.8 NE 17 20 9 11 1013.9 1013.9 0.0
24/01:30pm 26.9 27.1 18.6 60 5.3 NE 15 20 8 11 1014.1 1014.1 0.0
24/01:00pm 26.9 28.1 19.0 62 5.1 NE 11 17 6 9 1014.6 1014.6 0.0
24/12:30pm 26.6 27.7 18.8 62 5.0 N 11 19 6 10 1015.0 1015.0 0.0
24/12:00pm 26.4 27.3 18.5 62 5.0 NNE 11 17 6 9 1015.6 1015.6 0.0
24/11:30am 26.2 27.8 19.9 68 4.1 NNE 11 15 6 8 1015.9 1015.9 0.0
24/11:00am 25.9 28.7 18.9 65 4.5 NNW 2 17 1 9 1016.1 1016.1 0.0
24/10:30am 25.3 27.2 18.5 66 4.3 NNW 6 9 3 5 1016.4 1016.4 0.0
24/10:00am 24.7 27.4 19.4 72 3.4 WNW 4 9 2 5 1016.6 1016.6 0.0
24/09:30am 23.6 27.4 20.2 81 2.2 CALM 0 6 0 3 1016.7 1016.7 0.0
24/09:00am 22.4 26.6 20.9 91 1.0 CALM 0 0 0 0 1016.6 1016.6 0.0
24/08:30am 21.5 25.2 19.9 91 1.0 CALM 0 0 0 0 1016.4 1016.4 0.0
24/08:25am 21.2 24.7 19.6 90 1.0 CALM 0 0 0 0 1016.4 1016.4 0.0
24/08:00am 19.3 22.2 18.3 94 0.6 CALM 0 0 0 0 1016.2 1016.2 0.0
24/07:30am 18.2 21.0 17.9 98 0.2 CALM 0 0 0 0 1015.9 1015.9 0.0
24/07:00am 17.2 19.5 16.7 97 0.3 CALM 0 0 0 0 1015.5 1015.5 0.0
24/06:46am 16.9 19.1 16.4 97 0.3 CALM 0 0 0 0 1015.3 1015.3 0.0
24/06:30am 16.8 19.0 16.5 98 0.2 CALM 0 0 0 0 1015.2 1015.2 0.0
24/06:00am 17.3 19.6 16.8 97 0.3 CALM 0 0 0 0 1015.0 1015.0 0.0
24/05:30am 17.1 19.4 16.8 98 0.2 CALM 0 0 0 0 1014.7 1014.7 0.0
24/05:00am 17.3 19.7 17.0 98 0.2 CALM 0 0 0 0 1014.5 1014.5 0.0
24/04:30am 17.8 20.4 17.5 98 0.2 CALM 0 0 0 0 1014.4 1014.4 0.0
24/04:00am 17.7 20.2 17.2 97 0.3 CALM 0 0 0 0 1014.2 1014.2 0.0
24/03:30am 17.6 20.0 17.1 97 0.3 CALM 0 0 0 0 1014.1 1014.1 0.0
24/03:00am 17.9 20.5 17.4 97 0.3 CALM 0 0 0 0 1014.0 1014.0 0.0
24/02:41am 18.2 20.9 17.7 97 0.3 CALM 0 0 0 0 1014.0 1014.0 0.0
24/02:30am 18.2 21.0 18.0 99 0.1 CALM 0 0 0 0 1014.1 1014.1 0.0
24/02:22am 18.7 21.6 18.2 97 0.3 CALM 0 0 0 0 1014.2 1014.2 0.0
24/02:08am 18.3 21.1 18.0 98 0.2 CALM 0 0 0 0 1014.2 1014.2 0.0
24/02:00am 18.4 21.3 18.1 98 0.2 CALM 0 0 0 0 1014.2 1014.2 0.0
24/01:37am 18.9 21.9 18.4 97 0.3 CALM 0 0 0 0 1014.1 1014.1 0.0
24/01:30am 19.2 22.3 18.7 97 0.3 CALM 0 0 0 0 1014.2 1014.2 0.0
24/01:13am 19.2 22.3 18.7 97 0.3 CALM 0 0 0 0 1014.3 1014.3 0.0
24/01:00am 18.8 21.8 18.5 98 0.2 CALM 0 0 0 0 1014.4 1014.4 0.0
24/12:49am 19.0 22.1 18.7 98 0.2 CALM 0 0 0 0 1014.4 1014.4 0.0
24/12:30am 18.8 21.8 18.5 98 0.2 CALM 0 0 0 0 1014.4 1014.4 0.0
24/12:12am 18.9 21.9 18.4 97 0.3 CALM 0 0 0 0 1014.5 1014.5 0.0
24/12:00am 19.2 22.4 18.9 98 0.2 CALM 0 0 0 0 1014.5 1014.5 0.0
 
Date/Time
EST
Temp
°C
App
Temp
°C
Dew
Point
°C
Rel
Hum
%
Delta-T
°C
Wind Press
QNH
hPa
Press
MSL
hPa
Rain since
9am
mm
Dir  Spd
km/h
Gust
km/h
Spd
kts
Gust
kts
23/11:52pm 19.3 22.4 18.7 96 0.4 CALM 0 0 0 0 1014.4 1014.4 0.0
23/11:30pm 19.7 23.0 19.1 96 0.4 CALM 0 0 0 0 1014.4 1014.4 0.0
23/11:00pm 20.2 23.5 19.1 93 0.7 CALM 0 0 0 0 1014.5 1014.5 0.0
23/10:30pm 20.2 23.5 19.2 94 0.6 CALM 0 0 0 0 1014.5 1014.5 0.0
23/10:00pm 21.0 24.4 19.4 90 1.0 CALM 0 0 0 0 1014.4 1014.4 0.0
23/09:30pm 21.6 25.3 19.9 90 1.1 CALM 0 0 0 0 1014.4 1014.4 0.0
23/09:00pm 21.2 24.7 19.6 90 1.0 CALM 0 0 0 0 1014.3 1014.3 0.0
23/08:30pm 21.3 24.8 19.6 90 1.1 CALM 0 0 0 0 1014.1 1014.1 0.0
23/08:00pm 22.0 25.3 20.0 88 1.3 W 2 7 1 4 1013.8 1013.8 0.0
23/07:30pm 22.1 24.5 20.1 88 1.3 W 7 7 4 4 1013.4 1013.4 0.0
23/07:00pm 22.2 24.3 20.2 88 1.3 W 9 9 5 5 1013.2 1013.2 0.0
23/06:30pm 22.5 24.7 18.4 77 2.6 NW 4 7 2 4 1012.9 1012.9 0.0
23/06:00pm 23.4 25.2 18.7 75 3.0 NNW 7 9 4 5 1012.8 1012.8 0.0
23/05:30pm 24.7 26.0 17.1 62 4.7 NNE 6 11 3 6 1012.7 1012.7 0.0
23/05:00pm 25.2 26.5 19.4 70 3.7 ENE 11 15 6 8 1012.5 1012.5 0.0
23/04:30pm 25.7 26.6 19.3 67 4.1 ENE 13 17 7 9 1012.3 1012.3 0.0
23/04:00pm 26.4 26.9 18.4 61 5.1 NE 13 17 7 9 1012.2 1012.2 0.0
23/03:30pm 25.8 26.0 19.4 67 4.1 ENE 17 22 9 12 1012.4 1012.4 0.0
23/03:00pm 25.9 25.8 19.6 68 4.1 ENE 19 24 10 13 1012.5 1012.5 0.0
23/02:30pm 26.1 26.3 19.3 66 4.4 NE 17 20 9 11 1012.7 1012.7 0.0
23/02:00pm 26.3 25.1 17.0 56 5.8 NE 19 22 10 12 1012.9 1012.9 0.0
23/01:30pm 27.2 26.3 17.7 56 6.0 NE 19 22 10 12 1013.3 1013.3 0.0
23/01:00pm 26.6 26.6 17.3 56 5.8 NE 13 19 7 10 1013.7 1013.7 0.0
23/12:30pm 27.0 27.1 17.4 55 6.0 ENE 13 17 7 9 1014.2 1014.2 0.0
23/12:00pm 26.3 26.4 16.6 55 6.0 NE 11 15 6 8 1014.5 1014.5 0.0
23/11:30am 25.9 28.0 18.1 62 4.9 SSE 4 7 2 4 1014.9 1014.9 0.0
23/11:00am 25.0 27.0 18.7 68 4.0 SE 6 11 3 6 1015.5 1015.5 0.0
23/10:30am 24.9 27.9 18.4 67 4.1 CALM 0 2 0 1 1016.1 1016.1 0.0
23/10:00am 24.5 27.5 19.2 72 3.4 N 2 9 1 5 1016.1 1016.1 0.0
23/09:30am 23.2 25.0 18.8 76 2.8 SW 7 11 4 6 1016.2 1016.2 0.0
23/09:00am 22.6 26.1 19.6 83 1.9 CALM 0 0 0 0 1016.1 1016.1 0.0
23/08:30am 21.6 25.1 19.6 88 1.3 CALM 0 0 0 0 1015.8 1015.8 0.0
23/08:00am 19.6 22.8 18.8 95 0.5 CALM 0 0 0 0 1015.7 1015.7 0.0
23/07:30am 18.3 19.8 17.6 96 0.4 NNW 6 7 3 4 1015.5 1015.5 0.0
23/07:00am 17.8 20.4 17.5 98 0.2 CALM 0 0 0 0 1015.3 1015.3 0.0
23/06:30am 17.3 18.6 17.0 98 0.2 SSW 6 7 3 4 1014.9 1014.9 0.0
23/06:12am 17.9 19.1 17.4 97 0.3 SE 7 7 4 4 1014.5 1014.5 0.0
23/06:00am 18.1 19.5 17.8 98 0.2 SSE 7 9 4 5 1014.3 1014.3 0.0
23/05:30am 18.1 20.1 17.8 98 0.2 NNW 4 7 2 4 1014.0 1014.0 0.0
23/05:00am 18.1 20.8 17.8 98 0.2 CALM 0 0 0 0 1014.0 1014.0 0.0
23/04:30am 18.0 20.7 17.7 98 0.2 CALM 0 0 0 0 1014.0 1014.0 0.0
23/04:00am 18.1 19.5 17.8 98 0.2 NNW 7 7 4 4 1013.9 1013.9 0.0
23/03:30am 18.2 21.0 17.9 98 0.2 CALM 0 0 0 0 1013.8 1013.8 0.0
23/03:29am 18.3 21.0 17.8 97 0.3 CALM 0 0 0 0 1013.8 1013.8 0.0
23/03:00am 18.3 21.1 18.0 98 0.2 CALM 0 0 0 0 1013.7 1013.7 0.0
23/02:36am 18.2 20.9 17.7 97 0.3 CALM 0 0 0 0 1013.8 1013.8 0.0
23/02:30am 18.0 20.7 17.7 98 0.2 CALM 0 0 0 0 1013.8 1013.8 0.0
23/02:15am 18.3 21.1 18.0 98 0.2 CALM 0 0 0 0 1014.0 1014.0 0.0
23/02:00am 18.2 21.0 17.9 98 0.2 CALM 0 0 0 0 1014.1 1014.1 0.0
23/01:41am 18.4 21.2 17.9 97 0.3 CALM 0 0 0 0 1014.4 1014.4 0.0
23/01:30am 18.3 20.4 18.0 98 0.2 NW 4 7 2 4 1014.5 1014.5 0.0
23/01:00am 18.8 21.0 18.3 97 0.3 W 4 7 2 4 1014.5 1014.5 0.0
23/12:30am 19.4 22.6 18.8 96 0.4 CALM 0 0 0 0 1014.6 1014.6 0.0
23/12:21am 19.5 22.6 18.7 95 0.5 CALM 0 0 0 0 1014.7 1014.7 0.0
23/12:00am 20.1 23.4 19.1 94 0.6 CALM 0 0 0 0 1014.7 1014.7 0.0
 
Date/Time
EST
Temp
°C
App
Temp
°C
Dew
Point
°C
Rel
Hum
%
Delta-T
°C
Wind Press
QNH
hPa
Press
MSL
hPa
Rain since
9am
mm
Dir  Spd
km/h
Gust
km/h
Spd
kts
Gust
kts
22/11:30pm 20.4 23.9 19.5 95 0.6 CALM 0 0 0 0 1014.9 1014.9 0.0
22/11:00pm 20.7 22.4 19.4 92 0.8 S 9 9 5 5 1014.9 1014.9 0.0
22/10:30pm 20.3 21.8 19.0 92 0.8 SSE 9 11 5 6 1015.0 1015.0 0.0
22/10:00pm 21.1 22.8 19.4 90 1.1 SSE 9 13 5 7 1015.0 1015.0 0.0
22/09:30pm 21.4 23.7 19.8 91 1.0 ESE 7 11 4 6 1014.9 1014.9 0.0
22/09:00pm 22.2 23.5 20.2 88 1.3 ENE 13 15 7 8 1014.9 1014.9 0.0
22/08:30pm 22.1 23.4 20.2 89 1.2 ENE 13 17 7 9 1015.0 1015.0 0.0
22/08:00pm 21.9 22.8 20.0 89 1.2 ENE 15 19 8 10 1014.9 1014.9 0.0
22/07:30pm 22.0 22.9 20.0 88 1.3 ENE 15 19 8 10 1014.6 1014.6 0.0
22/07:00pm 22.3 22.7 19.8 86 1.6 ENE 17 19 9 10 1014.4 1014.4 0.0
22/06:30pm 22.5 22.5 19.7 84 1.8 ENE 19 20 10 11 1014.2 1014.2 0.0
22/06:00pm 22.6 22.9 19.5 82 2.0 ENE 17 22 9 12 1014.1 1014.1 0.0
22/05:30pm 23.4 23.7 19.5 79 2.5 ENE 17 22 9 12 1014.1 1014.1 0.0
22/05:00pm 24.4 25.1 18.9 71 3.5 NE 13 17 7 9 1014.0 1014.0 0.0
22/04:30pm 25.3 26.3 18.7 67 4.2 NE 11 13 6 7 1013.9 1013.9 0.0
22/04:00pm 25.0 25.1 18.4 66 4.2 ENE 15 17 8 9 1013.8 1013.8 0.0
22/03:30pm 25.5 26.1 18.6 65 4.4 NE 13 17 7 9 1013.9 1013.9 0.0
22/03:00pm 25.4 25.6 18.5 65 4.4 NE 15 19 8 10 1014.1 1014.1 0.0
22/02:30pm 25.4 25.7 17.9 63 4.7 NE 13 19 7 10 1014.2 1014.2 0.0
22/02:00pm 25.6 25.5 17.8 62 4.9 ENE 15 19 8 10 1014.5 1014.5 0.0
22/01:30pm 26.1 25.8 17.3 58 5.5 ENE 15 19 8 10 1014.9 1014.9 0.0
22/01:00pm 25.6 25.1 17.8 62 4.9 NE 17 20 9 11 1015.3 1015.3 0.0
22/12:30pm 25.6 26.2 17.8 62 4.9 NE 11 19 6 10 1015.7 1015.7 0.0
22/12:00pm 25.6 25.6 18.9 66 4.3 NE 17 24 9 13 1016.1 1016.1 0.0
22/11:30am 24.8 24.3 17.9 65 4.3 NE 17 22 9 12 1016.4 1016.4 0.0
22/11:00am 25.0 24.5 17.8 64 4.5 ENE 17 22 9 12 1016.7 1016.7 0.0
22/10:30am 25.0 24.9 17.8 64 4.5 ENE 15 19 8 10 1017.0 1017.0 0.0
22/10:00am 25.0 25.4 18.2 66 4.3 ESE 13 19 7 10 1017.2 1017.2 0.0
22/09:30am 23.6 24.5 18.5 73 3.2 SE 11 17 6 9 1017.3 1017.3 0.0
22/09:00am 23.5 24.6 18.9 75 2.9 ESE 11 19 6 10 1017.3 1017.3 0.0
22/08:30am 22.9 25.7 18.9 78 2.5 ESE 2 15 1 8 1017.1 1017.1 0.0
22/08:00am 21.5 25.1 19.8 90 1.1 CALM 0 0 0 0 1016.9 1016.9 0.0
22/07:30am 20.6 24.2 19.7 95 0.6 CALM 0 0 0 0 1016.7 1016.7 0.0
22/07:00am 20.3 22.5 19.7 96 0.4 SW 7 9 4 5 1016.3 1016.3 0.0
22/06:30am 20.5 24.0 19.6 95 0.6 CALM 0 0 0 0 1016.1 1016.1 0.0
22/06:00am 20.5 24.0 19.6 95 0.6 CALM 0 0 0 0 1016.0 1016.0 0.0
22/05:30am 20.4 24.1 19.9 97 0.3 CALM 0 0 0 0 1015.7 1015.7 0.0
22/05:00am 20.3 24.0 20.0 98 0.2 CALM 0 0 0 0 1015.6 1015.6 0.0
22/04:30am 20.1 23.6 19.6 97 0.3 CALM 0 0 0 0 1015.5 1015.5 0.0
22/04:00am 19.7 23.1 19.4 98 0.2 CALM 0 0 0 0 1015.5 1015.5 0.0
22/03:30am 19.8 23.3 19.5 98 0.2 CALM 0 0 0 0 1015.6 1015.6 0.0
22/03:00am 19.5 22.9 19.3 99 0.1 CALM 0 0 0 0 1015.9 1015.9 0.0
22/02:33am 19.2 22.4 18.9 98 0.2 CALM 0 0 0 0 1016.0 1016.0 0.0
22/02:30am 19.1 22.3 18.8 98 0.2 CALM 0 0 0 0 1016.0 1016.0 0.0
22/02:13am 19.1 22.3 18.8 98 0.2 CALM 0 0 0 0 1016.1 1016.1 0.0
22/02:06am 18.8 21.9 18.6 99 0.1 CALM 0 0 0 0 1016.1 1016.1 0.0
22/02:00am 18.8 21.9 18.6 99 0.1 CALM 0 0 0 0 1016.1 1016.1 0.0
22/01:30am 19.2 22.4 18.9 98 0.2 CALM 0 0 0 0 1016.6 1016.6 0.0
22/01:17am 19.4 22.6 18.9 97 0.3 CALM 0 0 0 0 1016.7 1016.7 0.0
22/01:00am 19.8 23.2 19.3 97 0.3 CALM 0 0 0 0 1016.9 1016.9 0.0
22/12:30am 19.9 23.3 19.4 97 0.3 CALM 0 0 0 0 1017.0 1017.0 0.0
22/12:18am 20.0 23.4 19.4 96 0.4 CALM 0 0 0 0 1017.1 1017.1 0.0
22/12:08am 19.9 23.3 19.4 97 0.3 CALM 0 0 0 0 1017.1 1017.1 0.0
22/12:00am 19.9 23.3 19.4 97 0.3 CALM 0 0 0 0 1017.1 1017.1 0.0
 
Date/Time
EST
Temp
°C
App
Temp
°C
Dew
Point
°C
Rel
Hum
%
Delta-T
°C
Wind Press
QNH
hPa
Press
MSL
hPa
Rain since
9am
mm
Dir  Spd
km/h
Gust
km/h
Spd
kts
Gust
kts
21/11:30pm 20.1 23.6 19.6 97 0.3 CALM 0 0 0 0 1017.1 1017.1 0.0
21/11:00pm 20.2 23.7 19.6 96 0.4 CALM 0 0 0 0 1017.2 1017.2 0.0
21/10:30pm 19.9 23.1 18.9 94 0.6 CALM 0 0 0 0 1017.4 1017.4 0.0
21/10:00pm 21.6 23.8 19.7 89 1.2 ESE 7 7 4 4 1017.4 1017.4 0.0
21/09:30pm 21.6 24.8 19.7 89 1.2 ESE 2 11 1 6 1017.4 1017.4 0.0
21/09:00pm 21.2 23.6 19.6 90 1.0 ESE 6 7 3 4 1017.3 1017.3 0.0
21/08:30pm 21.1 23.3 19.5 90 1.0 ESE 7 9 4 5 1017.1 1017.1 0.0
21/08:00pm 21.7 23.6 19.7 88 1.3 ESE 9 11 5 6 1016.6 1016.6 0.0
21/07:30pm 21.9 24.1 19.7 87 1.4 SE 7 9 4 5 1016.3 1016.3 0.0
21/07:00pm 22.0 24.0 20.0 88 1.3 E 9 13 5 7 1016.1 1016.1 0.0

Other Formats:

Comma delimited format used in spreadsheet applications
http://www.bom.gov.au/fwo/IDQ60801/IDQ60801.94294.axf

JavaScript Object Notation format (JSON) in row-major order
http://www.bom.gov.au/fwo/IDQ60801/IDQ60801.94294.json